Time;durP1;ratioP1;P1;durP2;ratioP2;P2;SDS_P1;SDS_P2;PMS_P1;PMS_P2;Temp;Humidity;BMP_temperature;BMP_pressure;BME280_temperature;BME280_humidity;BME280_pressure;Samples;Min_cycle;Max_cycle;Signal;HPM_P1;HPM_P2
2021/05/04 00:01:09;;;;;;;25.50;15.35;;;17.90;63.50;;;;;;5074701;28;20025;-63
2021/05/04 00:03:35;;;;;;;25.50;17.10;;;17.90;63.70;;;;;;5074811;28;20029;-63
2021/05/04 00:06:00;;;;;;;28.35;16.88;;;17.90;64.00;;;;;;5075092;28;20035;-63
2021/05/04 00:08:26;;;;;;;24.95;16.35;;;17.80;64.00;;;;;;5074739;28;20107;-62
2021/05/04 00:10:52;;;;;;;26.33;15.52;;;17.90;63.90;;;;;;5074627;28;20021;-62
2021/05/04 00:13:17;;;;;;;25.77;16.15;;;17.80;63.80;;;;;;5074447;28;20033;-60
2021/05/04 00:15:43;;;;;;;27.35;15.85;;;17.90;64.00;;;;;;5074313;28;20058;-60
2021/05/04 00:18:09;;;;;;;25.77;16.60;;;17.90;63.90;;;;;;5074627;28;20056;-60
2021/05/04 00:20:34;;;;;;;27.48;16.52;;;17.90;63.90;;;;;;5074496;28;20531;-61
2021/05/04 00:23:00;;;;;;;25.50;15.23;;;17.90;63.90;;;;;;5073841;28;20037;-60
2021/05/04 00:25:26;;;;;;;22.75;14.57;;;17.90;63.90;;;;;;5073077;28;20098;-60
2021/05/04 00:27:52;;;;;;;24.45;15.07;;;17.90;64.10;;;;;;5055359;28;20025;-60
2021/05/04 00:30:18;;;;;;;21.88;13.85;;;17.90;64.10;;;;;;5073116;28;20037;-65
2021/05/04 00:32:43;;;;;;;23.45;14.55;;;17.90;64.10;;;;;;5073250;28;20107;-60
2021/05/04 00:35:10;;;;;;;22.20;14.07;;;17.90;64.00;;;;;;5073160;28;20131;-60
2021/05/04 00:37:36;;;;;;;26.55;14.57;;;17.90;64.10;;;;;;5073467;28;20029;-60
2021/05/04 00:40:02;;;;;;;22.92;15.40;;;17.90;64.20;;;;;;5073130;28;20028;-60
2021/05/04 00:42:28;;;;;;;23.15;13.45;;;17.90;64.50;;;;;;5072982;28;20094;-60
2021/05/04 00:44:54;;;;;;;24.42;14.10;;;17.90;64.50;;;;;;5072053;28;20550;-60
2021/05/04 00:47:19;;;;;;;24.30;13.60;;;17.80;64.60;;;;;;5073164;28;20025;-60
2021/05/04 00:49:45;;;;;;;23.23;13.73;;;17.80;64.70;;;;;;5072988;28;20031;-61
2021/05/04 00:52:11;;;;;;;21.33;12.70;;;17.80;64.50;;;;;;5072893;28;20020;-60
2021/05/04 00:54:37;;;;;;;23.27;12.25;;;17.80;64.80;;;;;;5054998;28;20036;-60
2021/05/04 00:57:03;;;;;;;21.67;11.93;;;17.70;64.90;;;;;;5072751;28;20025;-61
2021/05/04 00:59:30;;;;;;;25.75;14.10;;;17.80;65.20;;;;;;5072851;28;20034;-60
2021/05/04 01:01:56;;;;;;;22.08;13.40;;;17.70;65.10;;;;;;5072846;28;20028;-60
2021/05/04 01:04:23;;;;;;;23.33;13.10;;;17.70;65.20;;;;;;5073083;28;20554;-60
2021/05/04 01:06:49;;;;;;;21.40;12.82;;;17.70;65.40;;;;;;5072819;28;20037;-60
2021/05/04 01:09:18;;;;;;;21.15;13.00;;;17.70;65.10;;;;;;5072980;28;20051;-60
2021/05/04 01:11:46;;;;;;;21.65;14.02;;;17.70;65.40;;;;;;5072418;28;20058;-63
2021/05/04 01:14:12;;;;;;;21.95;12.10;;;17.80;65.40;;;;;;5072960;28;20035;-60
2021/05/04 01:16:48;;;;;;;21.02;12.25;;;17.80;65.30;;;;;;5072500;28;20028;-60
2021/05/04 01:19:14;;;;;;;19.35;11.98;;;17.80;65.00;;;;;;5072610;28;20028;-61
2021/05/04 01:21:40;;;;;;;18.35;11.02;;;17.90;64.90;;;;;;5072626;28;20367;-63
2021/05/04 01:24:06;;;;;;;20.15;12.32;;;17.90;64.70;;;;;;5049286;28;660989;-61
2021/05/04 01:26:33;;;;;;;19.10;11.07;;;17.80;64.60;;;;;;5073644;28;20032;-60
2021/05/04 01:28:58;;;;;;;19.02;11.80;;;17.80;64.60;;;;;;5073244;28;20055;-60
2021/05/04 01:31:24;;;;;;;19.10;11.55;;;17.80;64.80;;;;;;5073245;28;20028;-60
2021/05/04 01:33:49;;;;;;;18.38;10.70;;;17.80;64.80;;;;;;5073070;28;20481;-62
2021/05/04 01:36:16;;;;;;;20.13;11.18;;;17.70;64.90;;;;;;5073004;28;20536;-60
2021/05/04 01:38:43;;;;;;;17.83;11.65;;;17.70;65.00;;;;;;5072973;28;20025;-61
2021/05/04 01:41:08;;;;;;;21.83;12.07;;;17.70;65.10;;;;;;5073211;28;20347;-60
2021/05/04 01:43:34;;;;;;;19.42;11.07;;;17.70;65.10;;;;;;5073067;28;20032;-60
2021/05/04 01:46:00;;;;;;;19.13;11.85;;;17.70;65.10;;;;;;5072979;28;20174;-60
2021/05/04 01:48:25;;;;;;;17.42;10.90;;;17.70;65.20;;;;;;5072893;28;20485;-60
2021/05/04 01:50:51;;;;;;;16.88;10.55;;;17.70;65.40;;;;;;5072920;28;20531;-60
2021/05/04 01:53:17;;;;;;;18.40;10.85;;;17.70;65.30;;;;;;5072763;28;20033;-60
2021/05/04 01:55:43;;;;;;;17.33;10.60;;;17.60;65.40;;;;;;5072828;28;20020;-60
2021/05/04 01:58:08;;;;;;;17.00;10.50;;;17.60;65.60;;;;;;5072904;28;20488;-60
2021/05/04 02:00:34;;;;;;;16.65;10.73;;;17.60;65.40;;;;;;5072917;28;20590;-60
2021/05/04 02:03:00;;;;;;;17.98;9.68;;;17.60;65.50;;;;;;5072631;28;20485;-60
2021/05/04 02:05:26;;;;;;;17.33;10.07;;;17.60;65.70;;;;;;5072887;28;20062;-60
2021/05/04 02:07:51;;;;;;;16.38;9.85;;;17.60;65.60;;;;;;5072862;28;20115;-60
2021/05/04 02:10:17;;;;;;;16.35;9.98;;;17.60;65.80;;;;;;5072980;28;20067;-60
2021/05/04 02:12:43;;;;;;;16.90;9.80;;;17.70;65.40;;;;;;5054979;28;20025;-60
2021/05/04 02:15:10;;;;;;;15.95;9.50;;;17.70;65.30;;;;;;5072482;28;20024;-61
2021/05/04 02:17:36;;;;;;;14.27;8.70;;;17.70;65.20;;;;;;5072749;28;20090;-60
2021/05/04 02:20:02;;;;;;;16.40;9.65;;;17.70;65.20;;;;;;5072587;28;20462;-60
2021/05/04 02:22:28;;;;;;;15.93;10.07;;;17.70;65.30;;;;;;5072365;28;20497;-63
2021/05/04 02:24:53;;;;;;;14.48;8.27;;;17.80;65.10;;;;;;5072398;28;20048;-62
2021/05/04 02:27:19;;;;;;;14.93;9.35;;;17.80;65.00;;;;;;5073071;28;20484;-62
2021/05/04 02:29:45;;;;;;;15.32;8.57;;;17.80;65.00;;;;;;5072556;28;20493;-63
2021/05/04 02:32:11;;;;;;;17.17;9.52;;;17.70;65.30;;;;;;5072670;28;20028;-63
2021/05/04 02:34:36;;;;;;;15.43;9.80;;;17.70;65.20;;;;;;5072603;28;20036;-61
2021/05/04 02:37:02;;;;;;;13.98;8.88;;;17.70;65.30;;;;;;5072420;28;20025;-63
2021/05/04 02:39:29;;;;;;;15.50;9.30;;;17.60;65.30;;;;;;5072398;28;20039;-62
2021/05/04 02:41:54;;;;;;;14.18;9.32;;;17.70;65.40;;;;;;5072502;28;20033;-62
2021/05/04 02:44:20;;;;;;;15.70;9.10;;;17.60;65.40;;;;;;5072279;28;20033;-63
2021/05/04 02:46:46;;;;;;;14.20;8.95;;;17.60;65.50;;;;;;5072487;28;20056;-62
2021/05/04 02:49:11;;;;;;;14.80;9.00;;;17.60;65.50;;;;;;5072298;28;20123;-61
2021/05/04 02:51:37;;;;;;;13.55;8.68;;;17.60;65.70;;;;;;5072182;28;20489;-60
2021/05/04 02:54:03;;;;;;;14.05;8.63;;;17.60;66.40;;;;;;5072404;28;20024;-60
2021/05/04 02:56:29;;;;;;;13.43;8.48;;;17.60;65.70;;;;;;5072505;28;20032;-63
2021/05/04 02:58:54;;;;;;;14.82;8.90;;;17.50;65.70;;;;;;5072204;28;20021;-63
2021/05/04 03:01:20;;;;;;;13.68;7.38;;;17.50;65.70;;;;;;5072131;28;20093;-63
2021/05/04 03:03:46;;;;;;;13.50;8.05;;;17.50;65.80;;;;;;5071749;28;20079;-63
2021/05/04 03:06:11;;;;;;;11.93;7.38;;;17.50;65.80;;;;;;5054119;28;20032;-63
2021/05/04 03:08:37;;;;;;;13.20;7.60;;;17.50;65.90;;;;;;5075969;28;20028;-63
2021/05/04 03:11:03;;;;;;;12.18;7.05;;;17.50;65.80;;;;;;5076084;28;20142;-63
2021/05/04 03:13:32;;;;;;;12.02;7.78;;;17.50;66.00;;;;;;5075628;28;20032;-62
2021/05/04 03:15:58;;;;;;;13.25;7.68;;;17.50;65.80;;;;;;5075663;28;20021;-63
2021/05/04 03:18:24;;;;;;;12.15;7.32;;;17.60;65.70;;;;;;5075631;28;20385;-61
2021/05/04 03:20:52;;;;;;;11.93;6.80;;;17.60;65.60;;;;;;5075815;28;20039;-60
2021/05/04 03:23:19;;;;;;;13.07;7.38;;;17.70;65.20;;;;;;5075691;28;20086;-63
2021/05/04 03:25:45;;;;;;;12.23;7.00;;;17.70;65.40;;;;;;5075392;28;20028;-63
2021/05/04 03:28:10;;;;;;;13.20;7.78;;;17.70;64.80;;;;;;5075477;28;20039;-63
2021/05/04 03:30:36;;;;;;;10.23;6.63;;;17.70;64.80;;;;;;5075316;28;20103;-62
2021/05/04 03:33:02;;;;;;;13.75;7.22;;;17.70;64.80;;;;;;5075357;28;20029;-63
2021/05/04 03:35:28;;;;;;;12.80;7.38;;;17.70;64.90;;;;;;5075497;28;20518;-62
2021/05/04 03:37:53;;;;;;;12.85;7.50;;;17.60;65.00;;;;;;5075481;28;20501;-62
2021/05/04 03:40:19;;;;;;;11.10;6.68;;;17.60;65.20;;;;;;5075262;28;20115;-62
2021/05/04 03:42:45;;;;;;;11.18;7.13;;;17.60;65.30;;;;;;5074941;28;20481;-63
2021/05/04 03:45:12;;;;;;;11.27;6.75;;;17.60;65.40;;;;;;5075130;28;20043;-63
2021/05/04 03:47:42;;;;;;;10.35;7.05;;;17.50;65.60;;;;;;5075015;28;20037;-63
2021/05/04 03:50:11;;;;;;;13.43;6.93;;;17.50;65.50;;;;;;5075094;28;20067;-62
2021/05/04 03:52:37;;;;;;;11.93;6.18;;;17.50;65.70;;;;;;5075074;28;20146;-63
2021/05/04 03:55:04;;;;;;;12.23;7.13;;;17.50;65.80;;;;;;5074918;28;20112;-63
2021/05/04 03:57:30;;;;;;;11.38;6.30;;;17.40;65.70;;;;;;5074809;28;20085;-63
2021/05/04 03:59:57;;;;;;;11.75;5.90;;;17.40;65.80;;;;;;5074795;28;20029;-63
2021/05/04 04:02:23;;;;;;;9.77;6.18;;;17.40;65.90;;;;;;5074749;28;20020;-62
2021/05/04 04:04:49;;;;;;;11.25;6.00;;;17.40;66.00;;;;;;5074779;28;20041;-63
2021/05/04 04:07:14;;;;;;;9.95;5.60;;;17.40;66.00;;;;;;5074846;28;20474;-64
2021/05/04 04:09:40;;;;;;;9.10;6.07;;;17.40;66.10;;;;;;5074798;28;20048;-63
2021/05/04 04:12:06;;;;;;;10.43;5.88;;;17.40;66.10;;;;;;5074678;28;20462;-63
2021/05/04 04:14:32;;;;;;;11.40;6.95;;;17.40;66.20;;;;;;5074457;28;20039;-63
2021/05/04 04:16:57;;;;;;;10.65;6.55;;;17.40;66.20;;;;;;5074718;28;20021;-63
2021/05/04 04:19:23;;;;;;;10.05;5.65;;;17.40;66.30;;;;;;5073233;28;20052;-63
2021/05/04 04:21:49;;;;;;;10.20;5.53;;;17.40;65.90;;;;;;5074716;28;20028;-60
2021/05/04 04:24:16;;;;;;;9.05;6.03;;;17.50;65.90;;;;;;5074208;28;20053;-63
2021/05/04 04:26:41;;;;;;;11.70;5.63;;;17.50;65.70;;;;;;5074219;28;20032;-63
2021/05/04 04:29:07;;;;;;;9.00;5.80;;;17.50;65.30;;;;;;5074153;28;20035;-62
2021/05/04 04:31:33;;;;;;;11.40;5.93;;;17.60;65.20;;;;;;5074365;28;20093;-63
2021/05/04 04:33:59;;;;;;;11.27;6.50;;;17.60;65.90;;;;;;5074289;28;20025;-60
2021/05/04 04:36:25;;;;;;;8.57;5.25;;;17.60;65.10;;;;;;5074250;28;20025;-61
2021/05/04 04:38:50;;;;;;;10.95;5.82;;;17.60;65.10;;;;;;5074178;28;20020;-62
2021/05/04 04:41:16;;;;;;;9.15;5.45;;;17.50;65.20;;;;;;5074061;28;20081;-60
2021/05/04 04:43:42;;;;;;;11.77;5.80;;;17.50;65.30;;;;;;5073817;28;20025;-63
2021/05/04 04:46:08;;;;;;;9.07;4.88;;;17.50;65.40;;;;;;5073870;28;20539;-62
2021/05/04 04:48:33;;;;;;;8.73;5.90;;;17.50;65.40;;;;;;5073931;28;20541;-63
2021/05/04 04:50:59;;;;;;;8.25;5.70;;;17.40;65.60;;;;;;5073985;28;20031;-63
2021/05/04 04:53:25;;;;;;;9.38;5.40;;;17.40;65.60;;;;;;5073757;28;20028;-63
2021/05/04 04:55:50;;;;;;;9.45;5.50;;;17.40;65.70;;;;;;5073564;28;20470;-62
2021/05/04 04:58:16;;;;;;;8.73;5.32;;;17.40;65.70;;;;;;5073564;28;20024;-63
2021/05/04 05:00:42;;;;;;;9.35;5.43;;;17.40;65.70;;;;;;5073562;28;20020;-63
2021/05/04 05:03:07;;;;;;;8.43;5.47;;;17.40;65.70;;;;;;5073646;28;20514;-63
2021/05/04 05:05:33;;;;;;;9.32;5.53;;;17.40;65.70;;;;;;5073654;28;20063;-62
2021/05/04 05:07:59;;;;;;;10.30;6.07;;;17.40;65.80;;;;;;5073502;28;20525;-62
2021/05/04 05:10:24;;;;;;;8.32;4.63;;;17.40;65.70;;;;;;5073432;28;20021;-63
2021/05/04 05:12:50;;;;;;;9.30;5.28;;;17.40;65.80;;;;;;5073152;28;20032;-63
2021/05/04 05:15:15;;;;;;;8.85;5.50;;;17.40;65.70;;;;;;5073551;28;20025;-63
2021/05/04 05:17:41;;;;;;;8.05;4.30;;;17.40;65.80;;;;;;5073369;28;20082;-62
2021/05/04 05:20:08;;;;;;;7.97;4.60;;;17.40;65.70;;;;;;5073272;28;20095;-63
2021/05/04 05:22:34;;;;;;;9.18;5.25;;;17.40;65.90;;;;;;5073173;28;20041;-63
2021/05/04 05:25:00;;;;;;;8.27;4.93;;;17.40;65.70;;;;;;5073407;28;20130;-63
2021/05/04 05:27:28;;;;;;;7.25;4.22;;;17.50;65.50;;;;;;5072965;28;20475;-63
2021/05/04 05:29:53;;;;;;;8.40;4.95;;;17.50;65.30;;;;;;5072856;28;20059;-62
2021/05/04 05:32:20;;;;;;;7.70;4.35;;;17.50;65.10;;;;;;5073134;28;20063;-65
2021/05/04 05:34:46;;;;;;;9.43;5.35;;;17.60;64.90;;;;;;5073167;28;20032;-62
2021/05/04 05:37:12;;;;;;;7.60;4.82;;;17.70;64.70;;;;;;5073113;28;20482;-62
2021/05/04 05:39:42;;;;;;;8.73;5.15;;;17.70;64.60;;;;;;5072866;28;20025;-66
2021/05/04 05:42:11;;;;;;;8.98;4.43;;;17.70;64.70;;;;;;5072786;28;20032;-63
2021/05/04 05:44:37;;;;;;;8.65;4.78;;;17.70;64.70;;;;;;5072904;28;20044;-63
2021/05/04 05:47:03;;;;;;;7.43;4.88;;;17.60;64.90;;;;;;5072869;28;20062;-63
2021/05/04 05:49:29;;;;;;;8.23;5.03;;;17.60;65.10;;;;;;5072763;28;20021;-63
2021/05/04 05:51:55;;;;;;;9.70;4.78;;;17.60;65.10;;;;;;5072765;28;20032;-62
2021/05/04 05:54:21;;;;;;;7.18;4.15;;;17.60;65.00;;;;;;5072635;28;20028;-67
2021/05/04 05:56:46;;;;;;;8.57;5.13;;;17.60;65.00;;;;;;5073001;28;20032;-63
2021/05/04 05:59:12;;;;;;;8.88;5.20;;;17.60;65.10;;;;;;5072923;28;20064;-63
2021/05/04 06:01:38;;;;;;;9.68;4.35;;;17.60;65.20;;;;;;5072812;28;20298;-60
2021/05/04 06:04:03;;;;;;;7.68;4.97;;;17.60;65.10;;;;;;5072624;28;20142;-63
2021/05/04 06:06:29;;;;;;;7.75;4.38;;;17.60;65.20;;;;;;5072563;28;20074;-63
2021/05/04 06:08:55;;;;;;;8.07;4.65;;;17.60;65.20;;;;;;5072585;28;20023;-60
2021/05/04 06:11:20;;;;;;;6.93;4.40;;;17.50;65.20;;;;;;5072712;28;20098;-60
2021/05/04 06:13:46;;;;;;;9.75;4.70;;;17.50;65.30;;;;;;5072461;28;20474;-63
2021/05/04 06:16:12;;;;;;;8.20;4.30;;;17.50;65.30;;;;;;5072599;28;20031;-63
2021/05/04 06:18:37;;;;;;;9.00;4.70;;;17.50;65.50;;;;;;5072511;28;20024;-62
2021/05/04 06:21:03;;;;;;;7.00;4.53;;;17.50;65.50;;;;;;5072434;28;20081;-62
2021/05/04 06:23:29;;;;;;;7.60;4.45;;;17.50;65.50;;;;;;5060310;28;20084;-63
2021/05/04 06:25:55;;;;;;;8.25;4.25;;;17.50;65.80;;;;;;5066970;28;20028;-59
2021/05/04 06:28:21;;;;;;;7.18;4.35;;;17.50;65.70;;;;;;5073180;28;20155;-61
2021/05/04 06:30:47;;;;;;;11.32;4.80;;;17.70;65.70;;;;;;5073429;28;20080;-60
2021/05/04 06:33:15;;;;;;;13.93;5.00;;;17.80;65.50;;;;;;5072992;28;20117;-62
2021/05/04 06:35:43;;;;;;;7.90;4.90;;;18.00;64.60;;;;;;5073250;28;20039;-62
2021/05/04 06:38:12;;;;;;;11.35;4.93;;;18.00;64.70;;;;;;5072982;28;20035;-62
2021/05/04 06:40:38;;;;;;;14.43;8.30;;;18.10;63.80;;;;;;5073042;28;20024;-59
2021/05/04 06:43:04;;;;;;;33.80;17.58;;;18.10;63.50;;;;;;5076210;28;20131;-61
2021/05/04 06:45:30;;;;;;;52.30;29.15;;;18.10;62.90;;;;;;5070702;28;20546;-62
2021/05/04 06:47:55;;;;;;;60.53;33.13;;;18.10;62.40;;;;;;5065025;28;20023;-63
2021/05/04 06:50:21;;;;;;;65.47;38.08;;;18.00;62.40;;;;;;5066740;28;20103;-62
2021/05/04 06:52:47;;;;;;;78.10;45.67;;;18.00;62.60;;;;;;5069518;28;20033;-63
2021/05/04 06:55:13;;;;;;;88.38;50.17;;;18.10;62.60;;;;;;5076586;28;20371;-62
2021/05/04 06:57:39;;;;;;;86.00;48.65;;;18.10;62.30;;;;;;5076660;28;20450;-61
2021/05/04 07:00:07;;;;;;;79.95;45.25;;;18.00;61.30;;;;;;5076855;28;20059;-65
2021/05/04 07:02:34;;;;;;;74.05;41.95;;;18.10;59.90;;;;;;5076328;28;20029;-62
2021/05/04 07:04:59;;;;;;;65.28;37.10;;;18.10;59.70;;;;;;5064008;28;20475;-65
2021/05/04 07:07:25;;;;;;;65.78;36.55;;;18.00;60.30;;;;;;5038806;28;20040;-64
2021/05/04 07:09:51;;;;;;;60.17;34.47;;;18.00;59.80;;;;;;5055172;28;20055;-65
2021/05/04 07:12:16;;;;;;;52.47;29.33;;;17.90;59.80;;;;;;5056190;28;20029;-64
2021/05/04 07:14:42;;;;;;;49.78;27.90;;;17.90;59.60;;;;;;5056634;28;20060;-64
2021/05/04 07:17:08;;;;;;;44.58;26.10;;;17.90;59.80;;;;;;5054612;28;20112;-65
2021/05/04 07:19:37;;;;;;;46.67;23.63;;;17.90;59.80;;;;;;5061513;28;20541;-67
2021/05/04 07:22:03;;;;;;;36.20;21.50;;;17.90;59.80;;;;;;5045182;28;20017;-65
2021/05/04 07:24:29;;;;;;;34.60;20.83;;;17.90;59.60;;;;;;5065875;28;20057;-66
2021/05/04 07:26:55;;;;;;;28.27;18.27;;;17.90;59.70;;;;;;5060941;28;20030;-66
2021/05/04 07:29:20;;;;;;;33.00;18.75;;;17.90;59.40;;;;;;5064660;28;20021;-65
2021/05/04 07:31:46;;;;;;;31.70;15.20;;;17.90;58.80;;;;;;5063720;28;20020;-65
2021/05/04 07:34:12;;;;;;;31.92;16.45;;;17.90;58.70;;;;;;5066742;28;20028;-64
2021/05/04 07:36:38;;;;;;;27.05;15.23;;;17.90;58.60;;;;;;5076689;28;20370;-64
2021/05/04 07:39:04;;;;;;;27.10;14.75;;;17.90;58.50;;;;;;5075980;28;20034;-65
2021/05/04 07:41:31;;;;;;;23.77;13.45;;;18.00;57.90;;;;;;5076179;28;20111;-64
2021/05/04 07:43:57;;;;;;;22.23;13.35;;;18.10;58.00;;;;;;5075017;28;20111;-65
2021/05/04 07:46:23;;;;;;;26.15;11.75;;;18.10;58.10;;;;;;5074322;28;20032;-64
2021/05/04 07:48:49;;;;;;;26.45;12.05;;;18.00;58.60;;;;;;5075942;28;20029;-65
2021/05/04 07:51:15;;;;;;;19.27;10.90;;;18.00;58.50;;;;;;5076202;28;20025;-64
2021/05/04 07:53:40;;;;;;;19.60;10.30;;;18.00;58.70;;;;;;5075724;28;20115;-64
2021/05/04 07:56:06;;;;;;;17.08;10.00;;;18.00;59.00;;;;;;5075983;28;20025;-64
2021/05/04 07:58:32;;;;;;;16.10;9.90;;;18.00;59.40;;;;;;5075986;28;20033;-64
2021/05/04 08:00:57;;;;;;;15.05;9.82;;;18.00;59.50;;;;;;5076060;28;20027;-64
2021/05/04 08:03:23;;;;;;;22.13;10.20;;;18.00;59.40;;;;;;5075573;28;20102;-64
2021/05/04 08:05:50;;;;;;;19.45;9.73;;;17.90;59.80;;;;;;5075813;28;20036;-64
2021/05/04 08:08:16;;;;;;;15.27;10.02;;;17.90;59.80;;;;;;5076199;28;20031;-64
2021/05/04 08:10:42;;;;;;;15.63;9.32;;;17.90;59.80;;;;;;5076136;28;20031;-64
2021/05/04 08:13:08;;;;;;;20.73;9.15;;;17.90;60.00;;;;;;5075774;28;20035;-64
2021/05/04 08:15:36;;;;;;;15.45;8.60;;;17.90;59.90;;;;;;5075418;28;20021;-64
2021/05/04 08:18:04;;;;;;;16.45;9.23;;;17.90;60.00;;;;;;5075565;28;20069;-65
2021/05/04 08:20:34;;;;;;;17.45;7.88;;;17.90;59.90;;;;;;5075750;28;20028;-64
2021/05/04 08:23:01;;;;;;;14.80;8.50;;;17.90;60.40;;;;;;5075203;28;20509;-64
2021/05/04 08:25:27;;;;;;;19.60;9.02;;;17.90;60.60;;;;;;5056959;28;20505;-64
2021/05/04 08:27:53;;;;;;;18.50;8.00;;;17.90;60.80;;;;;;5075088;28;20052;-64
2021/05/04 08:30:20;;;;;;;16.75;8.43;;;17.90;60.80;;;;;;5075134;28;20028;-64
2021/05/04 08:32:48;;;;;;;14.57;8.20;;;17.90;60.60;;;;;;5074981;28;20035;-64
2021/05/04 08:35:13;;;;;;;14.50;8.25;;;17.90;60.50;;;;;;5075008;28;20029;-64
2021/05/04 08:37:40;;;;;;;18.95;7.47;;;17.90;60.60;;;;;;5075024;28;20078;-64
2021/05/04 08:40:06;;;;;;;15.48;7.90;;;18.00;60.60;;;;;;5075066;28;20103;-64
2021/05/04 08:42:32;;;;;;;13.90;7.68;;;18.00;61.40;;;;;;5074902;28;20111;-64
2021/05/04 08:45:02;;;;;;;14.38;7.38;;;18.10;60.30;;;;;;5074680;28;20119;-64
2021/05/04 08:47:29;;;;;;;13.32;7.70;;;18.10;60.00;;;;;;5075611;28;20033;-64
2021/05/04 08:49:55;;;;;;;18.23;8.43;;;18.10;60.20;;;;;;5074547;28;20036;-64
2021/05/04 08:52:20;;;;;;;12.55;7.65;;;18.10;60.20;;;;;;5074761;28;20474;-64
2021/05/04 08:54:46;;;;;;;15.20;7.97;;;18.10;60.60;;;;;;5074693;28;20048;-64
2021/05/04 08:57:12;;;;;;;13.43;6.78;;;18.10;61.30;;;;;;5074570;28;20025;-64
2021/05/04 08:59:38;;;;;;;14.60;7.22;;;18.10;60.70;;;;;;5074500;28;20028;-64
2021/05/04 09:02:04;;;;;;;12.40;7.82;;;18.00;60.60;;;;;;5074455;28;20474;-64
2021/05/04 09:04:36;;;;;;;12.75;7.13;;;18.00;60.70;;;;;;5074192;28;20094;-64
2021/05/04 09:07:17;;;;;;;14.43;7.07;;;18.00;61.50;;;;;;5074435;28;20028;-64
2021/05/04 09:10:10;;;;;;;12.73;7.13;;;18.00;60.90;;;;;;5074379;28;20120;-64
2021/05/04 09:12:54;;;;;;;14.05;6.82;;;18.00;61.00;;;;;;5074663;28;20028;-64
2021/05/04 09:15:44;;;;;;;11.88;6.43;;;17.90;61.00;;;;;;5074418;28;20016;-64
2021/05/04 09:21:25;;;;;;;11.27;6.07;;;18.00;61.30;;;;;;5074254;28;20032;-64
2021/05/04 09:23:51;;;;;;;12.38;6.28;;;17.90;61.40;;;;;;5074070;28;20052;-64
2021/05/04 09:26:18;;;;;;;13.13;7.18;;;17.90;61.40;;;;;;5073872;28;20055;-64
2021/05/04 09:28:52;;;;;;;12.30;6.93;;;17.90;61.50;;;;;;5074086;28;20025;-64
2021/05/04 09:31:22;;;;;;;14.00;7.20;;;17.90;61.50;;;;;;5056283;28;20029;-64
2021/05/04 09:33:48;;;;;;;;;;;17.90;61.60;;;;;;5074597;28;20031;-64
2021/05/04 09:36:38;;;;;;;13.23;6.72;;;17.90;61.70;;;;;;5074006;28;19908;-63
2021/05/04 09:39:08;;;;;;;11.73;6.70;;;17.90;61.60;;;;;;5073712;28;20025;-64
2021/05/04 09:41:35;;;;;;;15.40;6.57;;;18.00;61.60;;;;;;5074197;28;20032;-64
2021/05/04 09:44:01;;;;;;;12.27;5.93;;;18.00;61.50;;;;;;5067687;28;20465;-65
2021/05/04 09:46:43;;;;;;;17.13;6.72;;;18.10;61.50;;;;;;5073165;28;20025;-64
2021/05/04 09:49:29;;;;;;;11.52;6.20;;;18.10;61.40;;;;;;5072025;28;20029;-64
2021/05/04 09:52:43;;;;;;;12.70;6.43;;;18.10;61.20;;;;;;5070619;28;20115;-65
2021/05/04 09:55:14;;;;;;;9.50;6.13;;;18.10;61.30;;;;;;5071874;28;20036;-65
2021/05/04 09:57:52;;;;;;;13.15;5.88;;;18.10;61.40;;;;;;5073352;28;20051;-67
2021/05/04 10:00:24;;;;;;;15.38;7.20;;;18.00;61.40;;;;;;5073975;28;20111;-65
2021/05/04 10:02:52;;;;;;;14.07;5.78;;;18.00;61.40;;;;;;5073823;28;20032;-65
2021/05/04 10:05:18;;;;;;;14.65;6.88;;;18.00;61.40;;;;;;5073279;28;20121;-65
2021/05/04 10:07:46;;;;;;;11.75;6.55;;;18.00;61.60;;;;;;5073276;28;20126;-64
2021/05/04 10:10:15;;;;;;;11.35;6.13;;;18.00;61.70;;;;;;5073394;28;20024;-65
2021/05/04 10:12:43;;;;;;;14.20;5.82;;;18.00;61.70;;;;;;5073057;28;20028;-65
2021/05/04 10:15:11;;;;;;;13.45;5.82;;;17.90;61.70;;;;;;5073416;28;20028;-64
2021/05/04 10:17:39;;;;;;;11.52;5.43;;;17.90;61.50;;;;;;5077490;28;20054;-64
2021/05/04 10:20:07;;;;;;;13.07;5.50;;;17.90;61.60;;;;;;5077413;28;20139;-64
2021/05/04 10:22:37;;;;;;;12.57;5.43;;;17.90;61.70;;;;;;5077448;28;20016;-65
2021/05/04 10:25:09;;;;;;;9.27;5.78;;;17.90;61.60;;;;;;5077740;28;20144;-64
2021/05/04 10:27:37;;;;;;;13.30;6.13;;;17.90;61.60;;;;;;5077165;28;20064;-64
2021/05/04 10:30:05;;;;;;;10.68;6.53;;;17.90;61.80;;;;;;5077342;28;20063;-65
2021/05/04 10:33:01;;;;;;;9.45;5.40;;;17.80;61.70;;;;;;5077607;28;20412;-64
2021/05/04 10:35:32;;;;;;;10.07;5.57;;;17.80;61.80;;;;;;5059444;28;20025;-64
2021/05/04 10:38:02;;;;;;;12.82;5.68;;;17.90;62.00;;;;;;5077322;28;20021;-65
2021/05/04 10:40:34;;;;;;;11.90;6.10;;;17.80;62.10;;;;;;5077259;28;20029;-64
2021/05/04 10:43:01;;;;;;;12.77;5.85;;;17.90;62.10;;;;;;5076760;28;20481;-65
2021/05/04 10:45:41;;;;;;;13.57;5.47;;;17.90;62.10;;;;;;5077147;28;20024;-64
2021/05/04 10:48:08;;;;;;;10.27;5.22;;;18.00;61.90;;;;;;5077548;28;20025;-65
2021/05/04 10:50:55;;;;;;;11.98;6.13;;;18.00;61.80;;;;;;5076592;28;20032;-64
2021/05/04 10:53:25;;;;;;;8.45;5.65;;;18.00;61.70;;;;;;5077076;28;20347;-64
2021/05/04 10:55:53;;;;;;;12.65;6.10;;;18.00;61.60;;;;;;5076601;28;20025;-67
2021/05/04 10:58:31;;;;;;;11.73;6.07;;;18.10;61.50;;;;;;5076261;28;20024;-63
2021/05/04 11:01:03;;;;;;;22.35;6.93;;;18.10;61.00;;;;;;5077306;28;20179;-58
2021/05/04 11:03:32;;;;;;;12.07;6.43;;;18.20;61.00;;;;;;5076996;28;20032;-61
2021/05/04 11:06:12;;;;;;;13.18;6.10;;;18.30;60.20;;;;;;5075958;28;20113;-64
2021/05/04 11:08:41;;;;;;;23.10;13.45;;;18.40;60.30;;;;;;5076697;28;20040;-63
2021/05/04 11:11:28;;;;;;;50.08;27.27;;;18.50;60.30;;;;;;5076578;28;20067;-63
2021/05/04 11:13:57;;;;;;;70.50;40.97;;;18.60;58.90;;;;;;5075832;28;20036;-62
2021/05/04 11:16:32;;;;;;;64.03;36.33;;;18.60;57.80;;;;;;5076382;28;20366;-62
2021/05/04 11:19:08;;;;;;;89.00;48.10;;;18.60;58.30;;;;;;5076282;28;20064;-66
2021/05/04 11:21:44;;;;;;;69.20;42.38;;;18.60;58.20;;;;;;5076320;28;20374;-62
2021/05/04 11:24:21;;;;;;;47.60;29.60;;;18.60;59.30;;;;;;5076574;28;20059;-62
2021/05/04 11:27:18;;;;;;;47.03;29.02;;;18.60;59.50;;;;;;5076019;28;20470;-63
2021/05/04 11:29:47;;;;;;;37.65;22.17;;;18.70;61.30;;;;;;5021197;28;20039;-58
2021/05/04 11:32:27;;;;;;;30.98;16.50;;;18.70;58.60;;;;;;5076160;28;20029;-62
2021/05/04 11:34:53;;;;;;;28.98;16.70;;;18.90;57.00;;;;;;5075569;28;20108;-62
2021/05/04 11:37:19;;;;;;;24.60;14.35;;;18.90;57.70;;;;;;5075931;28;20036;-62
2021/05/04 11:40:09;;;;;;;25.48;13.38;;;18.90;56.60;;;;;;5075937;28;20035;-63
2021/05/04 11:42:39;;;;;;;22.55;13.20;;;18.80;56.90;;;;;;5075888;28;20024;-63
2021/05/04 11:45:14;;;;;;;45.97;29.33;;;18.90;57.00;;;;;;5075936;28;20032;-63
2021/05/04 11:47:51;;;;;;;121.10;67.82;;;18.80;57.70;;;;;;5075719;28;20056;-62
2021/05/04 11:50:23;;;;;;;108.43;62.50;;;18.80;57.50;;;;;;5075463;28;20067;-62
2021/05/04 11:52:56;;;;;;;104.18;62.15;;;18.70;58.90;;;;;;5075934;28;20036;-63
2021/05/04 11:55:52;;;;;;;105.68;56.80;;;18.70;59.10;;;;;;5075564;28;20486;-66
2021/05/04 11:58:28;;;;;;;79.60;46.13;;;18.60;57.00;;;;;;5056134;28;20074;-62
2021/05/04 12:01:03;;;;;;;74.50;43.58;;;18.60;57.20;;;;;;5075769;28;20029;-64
2021/05/04 12:03:28;;;;;;;68.97;40.17;;;18.50;56.30;;;;;;5074650;28;20040;-64
2021/05/04 12:05:59;;;;;;;58.63;36.47;;;18.50;56.40;;;;;;5075346;28;20025;-63
2021/05/04 12:08:25;;;;;;;48.35;30.35;;;18.50;56.30;;;;;;5074905;28;20032;-64
2021/05/04 12:10:51;;;;;;;49.25;28.50;;;18.40;56.00;;;;;;5072704;28;20381;-65
2021/05/04 12:13:19;;;;;;;38.17;26.15;;;18.30;56.00;;;;;;5073473;28;20033;-64
2021/05/04 12:15:46;;;;;;;41.88;23.88;;;18.40;56.10;;;;;;5073411;28;20063;-63
2021/05/04 12:18:21;;;;;;;32.38;19.23;;;18.30;56.10;;;;;;5073993;28;20501;-66
2021/05/04 12:20:49;;;;;;;29.67;18.70;;;18.30;54.80;;;;;;5074170;28;20063;-63
2021/05/04 12:23:24;;;;;;;40.25;24.65;;;18.30;54.80;;;;;;5073480;28;20032;-64
2021/05/04 12:26:00;;;;;;;40.28;22.30;;;18.30;56.30;;;;;;5074873;28;20029;-63
2021/05/04 12:28:30;;;;;;;34.25;21.80;;;18.20;56.70;;;;;;5075321;28;20016;-63
2021/05/04 12:31:19;;;;;;;36.78;20.77;;;18.30;56.60;;;;;;5075165;28;20382;-63
2021/05/04 12:33:49;;;;;;;35.15;18.63;;;18.30;57.00;;;;;;5074667;28;20032;-63
2021/05/04 12:36:31;;;;;;;30.00;17.70;;;18.30;56.80;;;;;;5075673;28;20025;-63
2021/05/04 12:38:59;;;;;;;22.13;14.82;;;18.40;55.90;;;;;;5074282;28;20083;-63
2021/05/04 12:41:34;;;;;;;22.00;13.60;;;18.40;55.50;;;;;;5073903;28;20067;-63
2021/05/04 12:46:42;;;;;;;19.90;11.77;;;18.40;55.90;;;;;;5075151;28;20524;-63